createdAt,value
2022-07-26T00:01:56.591Z,94.89
2022-07-26T00:04:23.254Z,95.30
2022-07-26T00:06:49.864Z,95.21
2022-07-26T00:09:16.463Z,95.46
2022-07-26T00:11:43.030Z,95.70
2022-07-26T00:14:09.969Z,96.34
2022-07-26T00:16:38.323Z,96.40
2022-07-26T00:19:07.750Z,96.29
2022-07-26T00:21:36.934Z,96.27
2022-07-26T00:24:08.072Z,96.34
2022-07-26T00:26:34.712Z,96.79
2022-07-26T00:29:04.057Z,96.64
2022-07-26T00:31:32.311Z,97.12
2022-07-26T00:33:58.916Z,97.27
2022-07-26T00:36:26.067Z,97.51
2022-07-26T00:38:52.594Z,97.32
2022-07-26T00:41:19.141Z,97.57
2022-07-26T00:44:04.289Z,97.42
2022-07-26T00:46:30.903Z,97.19
2022-07-26T00:48:57.648Z,97.40
2022-07-26T00:51:24.277Z,97.08
2022-07-26T00:53:50.894Z,96.94
2022-07-26T00:56:18.032Z,97.12
2022-07-26T00:58:44.976Z,97.21
2022-07-26T01:01:11.701Z,97.00
2022-07-26T01:03:39.729Z,96.99
2022-07-26T01:06:06.958Z,97.14
2022-07-26T01:08:33.775Z,97.27
2022-07-26T01:11:00.279Z,97.36
2022-07-26T01:13:29.673Z,97.05
2022-07-26T01:15:58.450Z,96.86
2022-07-26T01:18:25.092Z,96.06
2022-07-26T01:20:54.163Z,96.41
2022-07-26T01:23:20.856Z,97.07
2022-07-26T01:25:48.782Z,96.69
2022-07-26T01:28:19.984Z,97.87
2022-07-26T01:30:47.536Z,98.07
2022-07-26T01:33:14.089Z,98.22
2022-07-26T01:35:40.689Z,97.94
2022-07-26T01:38:07.233Z,97.84
2022-07-26T01:40:33.751Z,97.78
2022-07-26T01:43:03.092Z,97.33
2022-07-26T01:45:29.735Z,97.19
2022-07-26T01:47:56.288Z,96.54
2022-07-26T01:50:22.916Z,96.59
2022-07-26T01:52:49.471Z,96.52
2022-07-26T01:55:16.087Z,96.87
2022-07-26T01:57:45.437Z,97.12
2022-07-26T02:00:12.645Z,96.88
2022-07-26T02:02:39.352Z,97.24
2022-07-26T02:05:06.359Z,96.98
2022-07-26T02:07:42.561Z,96.75
2022-07-26T02:10:12.628Z,96.58
2022-07-26T02:12:40.537Z,96.02
2022-07-26T02:15:08.816Z,96.12
2022-07-26T02:17:35.601Z,96.14
2022-07-26T02:20:02.370Z,95.89
2022-07-26T02:22:28.998Z,95.67
2022-07-26T02:24:55.668Z,95.76
2022-07-26T02:27:22.411Z,95.82
2022-07-26T02:29:49.014Z,95.84
2022-07-26T02:32:15.771Z,95.96
2022-07-26T02:34:42.508Z,96.24
2022-07-26T02:37:09.087Z,96.23
2022-07-26T02:39:35.659Z,96.25
2022-07-26T02:42:03.474Z,96.42
2022-07-26T02:44:30.689Z,96.44
2022-07-26T02:46:57.365Z,96.83
2022-07-26T02:49:23.889Z,96.01
2022-07-26T02:51:50.734Z,96.23
2022-07-26T02:54:17.294Z,96.28
2022-07-26T02:56:43.801Z,96.67
2022-07-26T02:59:10.279Z,96.19
2022-07-26T03:01:39.025Z,96.89
2022-07-26T03:04:07.910Z,96.15
2022-07-26T03:06:34.835Z,96.12
2022-07-26T03:09:01.431Z,95.92
2022-07-26T03:11:28.180Z,95.54
2022-07-26T03:13:54.732Z,95.60
2022-07-26T03:16:24.794Z,95.99
2022-07-26T03:18:53.962Z,95.99
2022-07-26T03:21:20.475Z,96.10
2022-07-26T03:23:47.037Z,96.25
2022-07-26T03:26:13.552Z,96.63
2022-07-26T03:28:42.422Z,96.81
2022-07-26T03:31:09.005Z,97.12
2022-07-26T03:33:35.592Z,96.85
2022-07-26T03:36:02.203Z,96.90
2022-07-26T03:38:29.031Z,96.87
2022-07-26T03:40:55.568Z,97.07
2022-07-26T03:43:23.402Z,97.17
2022-07-26T03:45:50.810Z,96.89
2022-07-26T03:48:17.472Z,96.67
2022-07-26T03:50:44.220Z,96.74
2022-07-26T03:53:10.767Z,96.98
2022-07-26T03:55:55.885Z,97.25
2022-07-26T03:58:22.504Z,97.35
2022-07-26T04:00:49.211Z,97.48
2022-07-26T04:03:15.774Z,97.39
2022-07-26T04:05:48.523Z,97.21
2022-07-26T04:08:16.305Z,97.43
2022-07-26T04:10:51.401Z,96.90
2022-07-26T04:13:18.860Z,97.02
2022-07-26T04:15:45.957Z,97.40
2022-07-26T04:18:14.262Z,97.24
2022-07-26T04:20:41.608Z,97.58
2022-07-26T04:23:11.498Z,96.99
2022-07-26T04:25:41.273Z,96.95
2022-07-26T04:28:08.248Z,96.92
2022-07-26T04:30:34.855Z,96.84
2022-07-26T04:33:01.578Z,96.85
2022-07-26T04:35:28.279Z,96.82
2022-07-26T04:37:54.978Z,96.13
2022-07-26T04:40:23.566Z,96.38
2022-07-26T04:42:52.036Z,96.42
2022-07-26T04:45:19.745Z,96.32
2022-07-26T04:47:51.297Z,96.44
2022-07-26T04:50:19.594Z,95.89
2022-07-26T04:52:46.318Z,95.93
2022-07-26T04:55:13.423Z,96.35
2022-07-26T04:57:40.111Z,95.86
2022-07-26T05:00:21.441Z,95.82
2022-07-26T05:02:49.788Z,95.87
2022-07-26T05:05:16.410Z,95.99
2022-07-26T05:07:45.632Z,95.10
2022-07-26T05:10:13.524Z,93.61
2022-07-26T05:12:40.156Z,92.87
2022-07-26T05:15:14.117Z,93.74
2022-07-26T05:17:42.768Z,92.83
2022-07-26T05:20:11.379Z,92.86
2022-07-26T05:22:38.163Z,91.99
2022-07-26T05:25:06.862Z,92.83
2022-07-26T05:27:33.667Z,93.57
2022-07-26T05:30:00.236Z,94.02
2022-07-26T05:32:28.193Z,93.34
2022-07-26T05:34:55.000Z,92.40
2022-07-26T05:37:21.566Z,92.71
2022-07-26T05:39:48.216Z,92.36
2022-07-26T05:42:14.717Z,92.42
2022-07-26T05:44:42.776Z,92.26
2022-07-26T05:47:09.919Z,93.52
2022-07-26T05:49:39.907Z,93.28
2022-07-26T05:52:07.102Z,93.17
2022-07-26T05:54:33.615Z,92.69
2022-07-26T05:57:00.111Z,92.59
2022-07-26T05:59:26.615Z,92.42
2022-07-26T06:01:56.435Z,92.78
2022-07-26T06:04:25.957Z,93.32
2022-07-26T06:06:54.714Z,93.16
2022-07-26T06:09:24.965Z,92.23
2022-07-26T06:11:51.621Z,92.74
2022-07-26T06:14:18.769Z,91.39
2022-07-26T06:16:47.049Z,91.79
2022-07-26T06:19:13.737Z,92.77
2022-07-26T06:21:40.358Z,91.34
2022-07-26T06:24:07.261Z,91.37
2022-07-26T06:26:34.389Z,87.82
2022-07-26T06:29:00.940Z,87.78
2022-07-26T06:31:27.589Z,88.05
2022-07-26T06:33:54.207Z,88.16
2022-07-26T06:36:20.697Z,88.54
2022-07-26T06:38:47.260Z,86.07
2022-07-26T06:41:15.774Z,84.92
2022-07-26T06:43:42.297Z,86.17
2022-07-26T06:46:08.885Z,87.58
2022-07-26T06:48:36.261Z,85.63
2022-07-26T06:51:06.234Z,86.64
2022-07-26T06:53:32.784Z,83.81
2022-07-26T06:55:59.500Z,84.25
2022-07-26T06:58:26.332Z,83.08
2022-07-26T07:00:52.944Z,84.79
2022-07-26T07:03:19.484Z,83.82
2022-07-26T07:05:50.002Z,84.72
2022-07-26T07:08:17.109Z,83.45
2022-07-26T07:10:44.833Z,82.39
2022-07-26T07:13:13.711Z,80.69
2022-07-26T07:15:40.289Z,77.99
2022-07-26T07:18:06.864Z,78.79
2022-07-26T07:20:34.433Z,80.79
2022-07-26T07:23:00.912Z,80.78
2022-07-26T07:25:30.835Z,78.67
2022-07-26T07:27:57.849Z,77.32
2022-07-26T07:30:24.440Z,76.94
2022-07-26T07:32:55.725Z,81.21
2022-07-26T07:35:23.951Z,77.39
2022-07-26T07:37:53.097Z,77.97
2022-07-26T07:40:21.462Z,75.19
2022-07-26T07:42:48.129Z,79.66
2022-07-26T07:45:14.982Z,74.11
2022-07-26T07:47:41.568Z,71.79
2022-07-26T07:50:08.751Z,73.53
2022-07-26T07:52:35.293Z,72.48
2022-07-26T07:55:37.055Z,76.38
2022-07-26T07:57:48.380Z,73.22
2022-07-26T08:00:16.809Z,70.99
2022-07-26T08:02:44.779Z,70.68
2022-07-26T08:05:14.350Z,70.04
2022-07-26T08:07:42.606Z,69.97
2022-07-26T08:10:10.361Z,69.17
2022-07-26T08:12:37.094Z,69.25
2022-07-26T08:15:07.186Z,66.94
2022-07-26T08:17:34.903Z,66.83
2022-07-26T08:20:05.116Z,66.85
2022-07-26T08:22:34.607Z,64.87
2022-07-26T08:25:01.255Z,68.03
2022-07-26T08:27:27.768Z,70.82
2022-07-26T08:29:54.296Z,66.32
2022-07-26T08:32:20.851Z,67.24
2022-07-26T08:34:47.381Z,69.87
2022-07-26T08:37:17.574Z,69.37
2022-07-26T08:39:46.791Z,71.17
2022-07-26T08:42:15.064Z,67.18
2022-07-26T08:44:46.799Z,65.77
2022-07-26T08:47:14.928Z,65.60
2022-07-26T08:49:42.788Z,61.68
2022-07-26T08:52:10.553Z,61.84
2022-07-26T08:54:37.273Z,62.03
2022-07-26T08:57:03.998Z,61.50
2022-07-26T08:59:30.799Z,61.87
2022-07-26T09:02:03.032Z,59.59
2022-07-26T09:04:43.920Z,57.08
2022-07-26T09:07:16.729Z,56.92
2022-07-26T09:10:05.244Z,56.29
2022-07-26T09:12:33.059Z,53.99
2022-07-26T09:15:00.767Z,54.42
2022-07-26T09:17:50.002Z,53.29
2022-07-26T09:20:24.272Z,51.18
2022-07-26T09:23:07.561Z,55.01
2022-07-26T09:25:36.699Z,51.01
2022-07-26T09:28:04.931Z,55.09
2022-07-26T09:30:33.092Z,53.27
2022-07-26T09:33:05.610Z,54.24
2022-07-26T09:35:52.089Z,51.39
2022-07-26T09:38:19.488Z,52.10
2022-07-26T09:40:50.664Z,56.78
2022-07-26T09:43:19.815Z,55.27
2022-07-26T09:46:05.061Z,53.28
2022-07-26T09:48:52.341Z,50.78
2022-07-26T09:51:42.791Z,52.74
2022-07-26T09:54:11.724Z,54.85
2022-07-26T09:56:50.709Z,55.45
2022-07-26T09:59:25.197Z,53.07
2022-07-26T10:01:53.326Z,53.20
2022-07-26T10:04:21.003Z,53.77
2022-07-26T10:06:47.762Z,54.12
2022-07-26T10:09:15.235Z,53.33
2022-07-26T10:11:47.628Z,52.79
2022-07-26T10:14:32.519Z,51.49
2022-07-26T10:17:18.360Z,51.95
2022-07-26T10:19:47.521Z,51.65
2022-07-26T10:22:32.137Z,49.48
2022-07-26T10:25:18.629Z,52.15
2022-07-26T10:27:48.801Z,51.01
2022-07-26T10:30:18.505Z,50.58
2022-07-26T10:32:50.927Z,52.42
2022-07-26T10:35:44.934Z,50.37
2022-07-26T10:38:23.765Z,53.74
2022-07-26T10:41:06.339Z,55.22
2022-07-26T10:43:42.490Z,53.06
2022-07-26T10:46:15.672Z,51.64
2022-07-26T10:48:59.958Z,49.35
2022-07-26T10:51:28.541Z,49.30
2022-07-26T10:54:06.659Z,52.24
2022-07-26T10:56:34.223Z,48.96
2022-07-26T10:59:01.477Z,48.26
2022-07-26T11:01:40.984Z,48.96
2022-07-26T11:04:21.979Z,50.38
2022-07-26T11:06:48.976Z,52.71
2022-07-26T11:09:16.144Z,54.04
2022-07-26T11:11:46.624Z,54.15
2022-07-26T11:14:16.914Z,53.91
2022-07-26T11:16:48.865Z,55.04
2022-07-26T11:19:18.030Z,54.82
2022-07-26T11:21:46.307Z,53.66
2022-07-26T11:24:13.562Z,55.29
2022-07-26T11:26:46.077Z,57.71
2022-07-26T11:29:17.551Z,52.19
2022-07-26T11:31:50.537Z,52.54
2022-07-26T11:34:26.889Z,51.79
2022-07-26T11:36:55.920Z,50.64
2022-07-26T11:39:27.820Z,50.65
2022-07-26T11:42:15.123Z,49.51
2022-07-26T11:44:46.550Z,50.05
2022-07-26T11:47:21.365Z,49.92
2022-07-26T11:50:11.635Z,47.92
2022-07-26T11:52:39.040Z,45.76
2022-07-26T11:55:06.936Z,47.62
2022-07-26T11:57:33.579Z,46.79
2022-07-26T12:00:00.998Z,46.04
2022-07-26T12:02:29.475Z,43.97
2022-07-26T12:05:18.332Z,43.24
2022-07-26T12:08:02.888Z,44.84
2022-07-26T12:10:30.071Z,44.52
2022-07-26T12:13:07.652Z,45.65
2022-07-26T12:15:48.061Z,45.25
2022-07-26T12:18:31.365Z,46.34
2022-07-26T12:21:06.227Z,46.84
2022-07-26T12:23:49.443Z,47.15
2022-07-26T12:26:27.911Z,50.49
2022-07-26T12:28:55.691Z,52.91
2022-07-26T12:31:27.765Z,57.29
2022-07-26T12:33:54.656Z,57.04
2022-07-26T12:36:27.771Z,56.28
2022-07-26T12:38:56.739Z,58.26
2022-07-26T12:44:06.096Z,56.24
2022-07-26T12:46:34.707Z,55.26
2022-07-26T12:49:01.736Z,56.01
2022-07-26T12:51:28.419Z,57.84
2022-07-26T12:53:55.030Z,55.39
2022-07-26T12:56:21.571Z,55.32
2022-07-26T12:58:48.050Z,55.12
2022-07-26T13:01:14.673Z,56.89
2022-07-26T13:03:41.377Z,59.06
2022-07-26T13:06:08.057Z,60.01
2022-07-26T13:08:34.664Z,60.71
2022-07-26T13:11:01.316Z,62.09
2022-07-26T13:13:27.922Z,61.94
2022-07-26T13:15:54.427Z,62.10
2022-07-26T13:18:21.040Z,61.64
2022-07-26T13:20:47.561Z,60.92
2022-07-26T13:23:15.798Z,60.77
2022-07-26T13:25:47.986Z,60.39
2022-07-26T13:28:15.859Z,59.54
2022-07-26T13:30:43.569Z,60.59
2022-07-26T13:33:10.708Z,60.87
2022-07-26T13:35:39.352Z,60.88
2022-07-26T13:38:08.402Z,59.40
2022-07-26T13:40:34.999Z,59.70
2022-07-26T13:43:01.657Z,60.06
2022-07-26T13:45:28.893Z,59.51
2022-07-26T13:47:55.933Z,59.62
2022-07-26T13:50:22.761Z,60.41
2022-07-26T13:52:49.269Z,60.73
2022-07-26T13:55:15.910Z,60.84
2022-07-26T13:57:52.946Z,60.53
2022-07-26T14:00:23.207Z,61.56
2022-07-26T14:02:49.851Z,60.99
2022-07-26T14:05:16.663Z,60.82
2022-07-26T14:07:43.661Z,61.14
2022-07-26T14:10:10.520Z,60.52
2022-07-26T14:12:38.211Z,60.35
2022-07-26T14:15:11.517Z,61.37
2022-07-26T14:17:40.699Z,58.91
2022-07-26T14:20:07.959Z,58.17
2022-07-26T14:22:34.721Z,58.92
2022-07-26T14:25:01.236Z,59.04
2022-07-26T14:27:28.015Z,57.87
2022-07-26T14:29:54.528Z,58.84
2022-07-26T14:32:22.036Z,58.81
2022-07-26T14:34:48.809Z,57.62
2022-07-26T14:37:44.438Z,57.42
2022-07-26T14:40:01.889Z,58.07
2022-07-26T14:42:28.496Z,58.34
2022-07-26T14:44:55.140Z,59.07
2022-07-26T14:47:21.625Z,59.25
2022-07-26T14:49:48.301Z,59.74
2022-07-26T14:52:15.540Z,60.39
2022-07-26T14:54:42.160Z,59.29
2022-07-26T14:57:08.693Z,58.67
2022-07-26T14:59:35.306Z,58.44
2022-07-26T15:02:05.656Z,58.71
2022-07-26T15:04:32.791Z,57.99
2022-07-26T15:06:59.812Z,59.43
2022-07-26T15:09:26.372Z,57.86
2022-07-26T15:11:53.118Z,57.38
2022-07-26T15:14:19.691Z,57.85
2022-07-26T15:16:46.358Z,58.82
2022-07-26T15:19:12.944Z,58.09
2022-07-26T15:21:39.523Z,59.07
2022-07-26T15:24:06.325Z,58.61
2022-07-26T15:26:32.919Z,57.96
2022-07-26T15:28:59.511Z,54.70
2022-07-26T15:31:36.810Z,50.82
2022-07-26T15:34:07.467Z,49.62
2022-07-26T15:36:34.705Z,50.70
2022-07-26T15:39:15.605Z,49.90
2022-07-26T15:41:43.115Z,48.82
2022-07-26T15:44:11.129Z,48.48
2022-07-26T15:46:39.720Z,46.33
2022-07-26T15:49:07.469Z,48.07
2022-07-26T15:51:34.220Z,50.39
2022-07-26T15:54:02.580Z,50.83
2022-07-26T15:56:29.253Z,52.03
2022-07-26T15:58:55.921Z,52.24
2022-07-26T16:01:22.526Z,52.60
2022-07-26T16:03:49.192Z,54.17
2022-07-26T16:06:15.755Z,53.51
2022-07-26T16:08:58.887Z,53.81
2022-07-26T16:11:29.958Z,54.19
2022-07-26T16:14:01.216Z,54.09
2022-07-26T16:16:28.152Z,55.49
2022-07-26T16:18:55.897Z,56.65
2022-07-26T16:21:22.385Z,55.00
2022-07-26T16:23:49.072Z,54.37
2022-07-26T16:26:15.570Z,54.54
2022-07-26T16:28:42.164Z,54.34
2022-07-26T16:31:08.784Z,54.07
2022-07-26T16:33:35.384Z,53.92
2022-07-26T16:36:06.127Z,54.11
2022-07-26T16:38:33.926Z,54.63
2022-07-26T16:41:00.889Z,55.34
2022-07-26T16:43:27.427Z,55.92
2022-07-26T16:45:54.008Z,54.89
2022-07-26T16:48:20.603Z,54.57
2022-07-26T16:50:47.246Z,55.15
2022-07-26T16:53:13.751Z,54.81
2022-07-26T16:55:40.268Z,54.82
2022-07-26T16:58:06.800Z,53.62
2022-07-26T17:00:33.568Z,54.29
2022-07-26T17:03:00.131Z,54.24
2022-07-26T17:05:26.817Z,53.42
2022-07-26T17:07:53.329Z,53.27
2022-07-26T17:10:20.616Z,52.78
2022-07-26T17:12:47.206Z,52.11
2022-07-26T17:15:13.941Z,52.63
2022-07-26T17:17:42.195Z,52.98
2022-07-26T17:20:11.808Z,52.90
2022-07-26T17:22:38.497Z,53.94
2022-07-26T17:25:06.687Z,55.67
2022-07-26T17:27:35.388Z,55.61
2022-07-26T17:30:07.276Z,54.63
2022-07-26T17:32:34.447Z,54.79
2022-07-26T17:35:01.145Z,54.19
2022-07-26T17:37:28.618Z,54.89
2022-07-26T17:39:55.370Z,54.27
2022-07-26T17:42:24.169Z,55.55
2022-07-26T17:44:51.532Z,56.66
2022-07-26T17:47:28.919Z,57.71
2022-07-26T17:50:01.376Z,55.65
2022-07-26T17:52:35.655Z,55.26
2022-07-26T17:55:02.712Z,54.43
2022-07-26T17:57:29.754Z,53.87
2022-07-26T17:59:56.352Z,54.16
2022-07-26T18:02:22.993Z,54.96
2022-07-26T18:04:50.104Z,53.91
2022-07-26T18:07:16.732Z,54.21
2022-07-26T18:09:43.340Z,54.76
2022-07-26T18:12:09.984Z,56.30
2022-07-26T18:14:37.728Z,59.59
2022-07-26T18:17:04.305Z,59.34
2022-07-26T18:19:32.760Z,59.08
2022-07-26T18:22:04.074Z,59.83
2022-07-26T18:24:32.389Z,59.57
2022-07-26T18:26:59.043Z,60.42
2022-07-26T18:29:25.779Z,58.88
2022-07-26T18:31:52.691Z,60.36
2022-07-26T18:34:19.272Z,58.64
2022-07-26T18:36:45.834Z,59.34
2022-07-26T18:39:12.833Z,59.49
2022-07-26T18:41:39.583Z,61.51
2022-07-26T18:44:06.201Z,59.36
2022-07-26T18:46:32.748Z,58.77
2022-07-26T18:49:00.641Z,59.01
2022-07-26T18:51:29.019Z,58.03
2022-07-26T18:53:57.293Z,57.65
2022-07-26T18:56:23.992Z,57.67
2022-07-26T18:58:50.509Z,57.39
2022-07-26T19:01:17.119Z,59.67
2022-07-26T19:03:43.724Z,58.96
2022-07-26T19:06:11.873Z,57.14
2022-07-26T19:08:38.512Z,58.35
2022-07-26T19:11:05.000Z,57.95
2022-07-26T19:13:31.510Z,57.99
2022-07-26T19:15:58.082Z,57.96
2022-07-26T19:18:24.660Z,59.48
2022-07-26T19:20:51.239Z,59.50
2022-07-26T19:23:17.788Z,59.09
2022-07-26T19:25:44.416Z,60.22
2022-07-26T19:28:11.303Z,59.03
2022-07-26T19:30:38.353Z,60.49
2022-07-26T19:33:04.886Z,61.03
2022-07-26T19:35:31.609Z,59.27
2022-07-26T19:37:58.084Z,61.74
2022-07-26T19:40:24.891Z,60.44
2022-07-26T19:42:51.466Z,61.24
2022-07-26T19:45:18.569Z,58.69
2022-07-26T19:47:45.357Z,60.21
2022-07-26T19:50:12.013Z,59.74
2022-07-26T19:52:39.631Z,59.43
2022-07-26T19:55:07.114Z,59.16
2022-07-26T19:57:33.665Z,59.50
2022-07-26T20:00:02.568Z,58.64
2022-07-26T20:02:29.504Z,57.80
2022-07-26T20:04:56.185Z,58.18
2022-07-26T20:07:22.758Z,57.76
2022-07-26T20:09:50.488Z,57.71
2022-07-26T20:12:18.307Z,58.04
2022-07-26T20:14:45.444Z,57.60
2022-07-26T20:17:13.159Z,59.04
2022-07-26T20:19:40.582Z,57.89
2022-07-26T20:22:07.198Z,59.17
2022-07-26T20:24:33.999Z,58.00
2022-07-26T20:27:00.540Z,58.56
2022-07-26T20:29:27.041Z,59.81
2022-07-26T20:31:53.571Z,57.77
2022-07-26T20:34:20.102Z,58.38
2022-07-26T20:36:47.011Z,58.91
2022-07-26T20:39:14.969Z,59.75
2022-07-26T20:41:41.780Z,60.34
2022-07-26T20:44:08.325Z,59.96
2022-07-26T20:46:40.006Z,60.05
2022-07-26T20:49:07.856Z,60.07
2022-07-26T20:51:34.723Z,60.68
2022-07-26T20:54:01.297Z,60.12
2022-07-26T20:56:27.944Z,59.93
2022-07-26T20:58:55.478Z,59.41
2022-07-26T21:01:22.223Z,59.39
2022-07-26T21:03:48.834Z,59.65
2022-07-26T21:06:15.397Z,61.17
2022-07-26T21:08:42.060Z,59.82
2022-07-26T21:11:08.531Z,60.93
2022-07-26T21:13:35.192Z,62.04
2022-07-26T21:16:01.772Z,61.93
2022-07-26T21:18:32.822Z,62.03
2022-07-26T21:21:00.123Z,61.73
2022-07-26T21:23:26.618Z,61.52
2022-07-26T21:25:58.175Z,62.98
2022-07-26T21:28:27.494Z,62.20
2022-07-26T21:30:54.247Z,61.83
2022-07-26T21:33:20.805Z,61.68
2022-07-26T21:35:47.358Z,61.50
2022-07-26T21:38:13.867Z,62.28
2022-07-26T21:40:40.541Z,61.30
2022-07-26T21:43:07.183Z,60.59
2022-07-26T21:45:33.790Z,59.87
2022-07-26T21:48:00.409Z,59.10
2022-07-26T21:50:27.913Z,59.50
2022-07-26T21:52:54.464Z,58.46
2022-07-26T21:55:21.177Z,58.57
2022-07-26T21:57:48.080Z,57.99
2022-07-26T22:00:16.453Z,58.62
2022-07-26T22:02:42.997Z,58.17
2022-07-26T22:05:28.152Z,59.54
2022-07-26T22:07:54.889Z,59.82
2022-07-26T22:10:21.749Z,58.44
2022-07-26T22:12:48.230Z,57.49
2022-07-26T22:15:14.944Z,56.06
2022-07-26T22:17:41.720Z,54.86
2022-07-26T22:20:09.233Z,55.56
2022-07-26T22:22:36.486Z,55.26
2022-07-26T22:25:03.795Z,54.38
2022-07-26T22:27:30.490Z,53.32
2022-07-26T22:29:57.103Z,53.14
2022-07-26T22:32:23.640Z,53.56
2022-07-26T22:34:50.109Z,52.54
2022-07-26T22:37:16.656Z,51.89
2022-07-26T22:39:43.258Z,51.64
2022-07-26T22:42:16.940Z,51.46
2022-07-26T22:44:43.771Z,51.23
2022-07-26T22:47:10.353Z,50.92
2022-07-26T22:49:36.917Z,50.39
2022-07-26T22:52:03.686Z,50.45
2022-07-26T22:54:30.249Z,49.49
2022-07-26T22:56:56.841Z,49.17
2022-07-26T22:59:25.353Z,49.01
2022-07-26T23:01:51.971Z,49.62
2022-07-26T23:04:18.544Z,49.36
2022-07-26T23:06:45.721Z,48.99
2022-07-26T23:09:12.548Z,49.37
2022-07-26T23:11:39.537Z,49.37
2022-07-26T23:14:06.088Z,49.18
2022-07-26T23:16:32.753Z,48.76
2022-07-26T23:18:59.355Z,48.63
2022-07-26T23:21:25.954Z,48.84
2022-07-26T23:23:52.444Z,48.72
2022-07-26T23:26:19.004Z,47.96
2022-07-26T23:28:45.539Z,48.68
2022-07-26T23:31:12.578Z,48.91
2022-07-26T23:33:51.732Z,48.70
2022-07-26T23:36:29.866Z,49.16
2022-07-26T23:38:58.527Z,49.00
2022-07-26T23:41:25.789Z,48.96
2022-07-26T23:43:53.198Z,49.27
2022-07-26T23:46:20.756Z,49.13
2022-07-26T23:48:47.850Z,49.31
2022-07-26T23:51:14.841Z,49.50
2022-07-26T23:53:41.874Z,50.03
2022-07-26T23:56:08.517Z,50.09
2022-07-26T23:58:35.019Z,51.92
